Time;durP1;ratioP1;P1;durP2;ratioP2;P2;SDS_P1;SDS_P2;PMS_P1;PMS_P2;Temp;Humidity;BMP_temperature;BMP_pressure;BME280_temperature;BME280_humidity;BME280_pressure;Samples;Min_cycle;Max_cycle;Signal;HPM_P1;HPM_P2
2022/06/18 00:00:55;;;;;;;;;;;;;;;;;;4994921;28;19914;-27
2022/06/18 00:03:21;;;;;;;;;;;;;;;;;;4995096;28;19984;-27
2022/06/18 00:05:47;;;;;;;;;;;;;;;;;;4994992;28;19922;-27
2022/06/18 00:13:56;;;;;;;;;;;;;;;;;;4994960;28;20256;-26
2022/06/18 00:16:29;;;;;;;;;;;;;;;;;;4995598;28;20229;-23
2022/06/18 00:19:17;;;;;;;;;;;;;;;;;;4997115;28;19947;-25
2022/06/18 00:24:41;;;;;;;;;;;;;;;;;;5040288;28;20389;-24
2022/06/18 00:27:08;;;;;;;;;;;;;;;;;;5038942;28;19956;-24
2022/06/18 00:29:35;;;;;;;;;;;;;;;;;;5039123;28;20008;-24
2022/06/18 00:32:02;;;;;;;;;;;;;;;;;;5042544;28;19939;-24
2022/06/18 00:34:29;;;;;;;;;;;;;;;;;;5059111;28;20034;-23
2022/06/18 00:36:57;;;;;;;;;;;;;;;;;;5059876;28;19920;-23
2022/06/18 00:39:24;;;;;;;;;;;;;;;;;;5060055;28;20200;-24
2022/06/18 00:41:54;;;;;;;;;;;;;;;;;;5059710;28;20306;-24
2022/06/18 00:44:21;;;;;;;;;;;;;;;;;;5058993;28;19909;-23
2022/06/18 00:46:49;;;;;;;;;;;;;;;;;;5059005;28;19978;-24
2022/06/18 00:49:15;;;;;;;;;;;;;;;;;;5058650;28;19913;-23
2022/06/18 00:51:42;;;;;;;;;;;;;;;;;;5059389;28;20004;-23
2022/06/18 00:54:10;;;;;;;;;;;;;;;;;;5058312;28;20012;-24
2022/06/18 00:56:36;;;;;;;;;;;;;;;;;;5059797;28;19912;-23
2022/06/18 00:59:03;;;;;;;;;;;;;;;;;;5058403;28;19921;-23
2022/06/18 01:01:30;;;;;;;;;;;;;;;;;;5059895;28;19920;-23
2022/06/18 01:03:57;;;;;;;;;;;;;;;;;;5058401;28;19919;-24
2022/06/18 01:06:24;;;;;;;;;;;;;;;;;;5059410;28;19912;-24
2022/06/18 01:08:52;;;;;;;;;;;;;;;;;;5059682;28;19913;-24
2022/06/18 01:11:19;;;;;;;;;;;;;;;;;;5059201;28;19992;-24
2022/06/18 01:13:45;;;;;;;;;;;;;;;;;;5058244;28;19959;-23
2022/06/18 01:16:12;;;;;;;;;;;;;;;;;;5058284;28;19913;-23
2022/06/18 01:18:38;;;;;;;;;;;;;;;;;;5059398;28;20367;-23
2022/06/18 01:21:06;;;;;;;;;;;;;;;;;;5059160;28;19909;-23
2022/06/18 01:23:33;;;;;;;;;;;;;;;;;;5058769;28;20408;-23
2022/06/18 01:26:00;;;;;;;;;;;;;;;;;;5059075;28;19912;-23
2022/06/18 01:28:26;;;;;;;;;;;;;;;;;;5057911;28;20236;-23
2022/06/18 01:30:53;;;;;;;;;;;;;;;;;;5058061;28;19912;-23
2022/06/18 01:33:19;;;;;;;;;;;;;;;;;;5058961;28;19916;-23
2022/06/18 01:35:47;;;;;;;;;;;;;;;;;;5059195;28;19967;-23
2022/06/18 01:38:14;;;;;;;;;;;;;;;;;;5058483;28;19912;-29
2022/06/18 01:40:40;;;;;;;;;;;;;;;;;;5058673;28;19913;-24
2022/06/18 01:43:07;;;;;;;;;;;;;;;;;;5058779;28;19958;-24
2022/06/18 01:45:33;;;;;;;;;;;;;;;;;;5057664;28;19928;-24
2022/06/18 01:48:00;;;;;;;;;;;;;;;;;;5058561;28;19990;-23
2022/06/18 01:50:27;;;;;;;;;;;;;;;;;;5057597;28;19971;-23
2022/06/18 01:52:55;;;;;;;;;;;;;;;;;;5057483;28;19963;-23
2022/06/18 01:55:22;;;;;;;;;;;;;;;;;;5058740;28;20204;-23
2022/06/18 01:57:49;;;;;;;;;;;;;;;;;;5058662;28;19908;-23
2022/06/18 02:00:16;;;;;;;;;;;;;;;;;;5058512;28;20007;-23
2022/06/18 02:02:42;;;;;;;;;;;;;;;;;;5056946;28;19913;-23
2022/06/18 02:05:09;;;;;;;;;;;;;;;;;;5057903;28;20003;-23
2022/06/18 02:07:35;;;;;;;;;;;;;;;;;;5057042;28;19913;-23
2022/06/18 02:10:02;;;;;;;;;;;;;;;;;;5058489;28;19992;-23
2022/06/18 02:12:29;;;;;;;;;;;;;;;;;;5058286;28;19923;-23
2022/06/18 02:14:56;;;;;;;;;;;;;;;;;;5057677;28;20378;-23
2022/06/18 02:17:22;;;;;;;;;;;;;;;;;;5058315;28;19946;-23
2022/06/18 02:19:49;;;;;;;;;;;;;;;;;;5058826;28;19908;-23
2022/06/18 02:22:17;;;;;;;;;;;;;;;;;;5057638;28;20001;-23
2022/06/18 02:24:44;;;;;;;;;;;;;;;;;;5056944;28;20240;-23
2022/06/18 02:27:11;;;;;;;;;;;;;;;;;;5056658;28;19923;-23
2022/06/18 02:29:38;;;;;;;;;;;;;;;;;;5057628;28;20236;-23
2022/06/18 02:32:05;;;;;;;;;;;;;;;;;;5057953;28;19913;-23
2022/06/18 02:34:32;;;;;;;;;;;;;;;;;;5058007;28;20026;-23
2022/06/18 02:36:59;;;;;;;;;;;;;;;;;;5057875;28;19913;-23
2022/06/18 02:39:26;;;;;;;;;;;;;;;;;;5057681;28;20039;-23
2022/06/18 02:41:53;;;;;;;;;;;;;;;;;;5057402;28;19916;-23
2022/06/18 02:44:20;;;;;;;;;;;;;;;;;;5057599;28;19999;-23
2022/06/18 02:46:46;;;;;;;;;;;;;;;;;;5056229;28;19917;-23
2022/06/18 02:49:13;;;;;;;;;;;;;;;;;;5057179;28;19964;-24
2022/06/18 02:51:40;;;;;;;;;;;;;;;;;;5057508;28;19913;-23
2022/06/18 02:54:07;;;;;;;;;;;;;;;;;;5057942;28;19967;-23
2022/06/18 02:56:34;;;;;;;;;;;;;;;;;;5056139;28;20003;-23
2022/06/18 02:59:04;;;;;;;;;;;;;;;;;;5056379;28;19966;-25
2022/06/18 03:01:32;;;;;;;;;;;;;;;;;;5057149;28;19909;-23
2022/06/18 03:03:59;;;;;;;;;;;;;;;;;;5057243;28;19913;-23
2022/06/18 03:06:25;;;;;;;;;;;;;;;;;;5057432;28;20271;-23
2022/06/18 03:08:52;;;;;;;;;;;;;;;;;;5056355;28;19935;-23
2022/06/18 03:14:06;;;;;;;;;;;;;;;;;;5057166;28;19923;-24
2022/06/18 03:16:33;;;;;;;;;;;;;;;;;;5056211;28;19923;-23
2022/06/18 03:19:01;;;;;;;;;;;;;;;;;;5057353;28;20258;-23
2022/06/18 03:21:28;;;;;;;;;;;;;;;;;;5055827;28;19912;-23
2022/06/18 03:23:55;;;;;;;;;;;;;;;;;;5057175;28;20401;-23
2022/06/18 03:26:22;;;;;;;;;;;;;;;;;;5056759;28;19927;-23
2022/06/18 03:28:50;;;;;;;;;;;;;;;;;;5055760;28;19988;-23
2022/06/18 03:31:17;;;;;;;;;;;;;;;;;;5057129;28;19959;-23
2022/06/18 03:33:46;;;;;;;;;;;;;;;;;;5055715;28;19912;-23
2022/06/18 03:36:13;;;;;;;;;;;;;;;;;;5056732;28;19912;-22
2022/06/18 03:38:40;;;;;;;;;;;;;;;;;;5055865;28;19931;-23
2022/06/18 03:41:08;;;;;;;;;;;;;;;;;;5055736;28;19909;-23
2022/06/18 03:43:34;;;;;;;;;;;;;;;;;;5056366;28;19942;-23
2022/06/18 03:46:02;;;;;;;;;;;;;;;;;;5056997;28;20342;-23
2022/06/18 03:48:29;;;;;;;;;;;;;;;;;;5055575;28;20309;-23
2022/06/18 03:50:55;;;;;;;;;;;;;;;;;;5056720;28;20332;-23
2022/06/18 03:53:22;;;;;;;;;;;;;;;;;;5058690;28;19913;-23
2022/06/18 03:55:49;;;;;;;;;;;;;;;;;;5060566;28;19909;-23
2022/06/18 03:58:16;;;;;;;;;;;;;;;;;;5060356;28;19957;-23
2022/06/18 04:00:43;;;;;;;;;;;;;;;;;;5060220;28;19920;-23
2022/06/18 04:03:09;;;;;;;;;;;;;;;;;;5060340;28;19924;-23
2022/06/18 04:05:36;;;;;;;;;;;;;;;;;;5060559;28;20054;-24
2022/06/18 04:08:03;;;;;;;;;;;;;;;;;;5060691;28;20017;-24
2022/06/18 04:10:30;;;;;;;;;;;;;;;;;;5060373;28;20000;-27
2022/06/18 04:12:56;;;;;;;;;;;;;;;;;;5058238;28;20351;-31
2022/06/18 04:15:22;;;;;;;;;;;;;;;;;;5057349;28;19912;-28
2022/06/18 04:17:48;;;;;;;;;;;;;;;;;;5056376;28;19912;-31
2022/06/18 04:20:14;;;;;;;;;;;;;;;;;;5057291;28;19939;-31
2022/06/18 04:22:40;;;;;;;;;;;;;;;;;;5057038;28;20015;-30
2022/06/18 04:25:06;;;;;;;;;;;;;;;;;;5056105;28;19928;-30
2022/06/18 04:27:32;;;;;;;;;;;;;;;;;;5055943;28;19920;-26
2022/06/18 04:29:58;;;;;;;;;;;;;;;;;;5056219;28;19939;-28
2022/06/18 04:32:24;;;;;;;;;;;;;;;;;;5056272;28;19916;-27
2022/06/18 04:34:50;;;;;;;;;;;;;;;;;;5056361;28;19908;-31
2022/06/18 04:37:16;;;;;;;;;;;;;;;;;;5055962;28;20310;-30
2022/06/18 04:39:42;;;;;;;;;;;;;;;;;;5055839;28;19963;-33
2022/06/18 04:42:08;;;;;;;;;;;;;;;;;;5055591;28;19916;-27
2022/06/18 04:44:34;;;;;;;;;;;;;;;;;;5054778;28;19909;-30
2022/06/18 04:47:00;;;;;;;;;;;;;;;;;;5054994;28;20327;-30
2022/06/18 04:49:26;;;;;;;;;;;;;;;;;;5055929;28;19913;-34
2022/06/18 04:51:52;;;;;;;;;;;;;;;;;;5055595;28;20019;-29
2022/06/18 04:54:18;;;;;;;;;;;;;;;;;;5055492;28;20382;-28
2022/06/18 04:56:44;;;;;;;;;;;;;;;;;;5055457;28;20331;-28
2022/06/18 04:59:10;;;;;;;;;;;;;;;;;;5055759;28;19908;-28
2022/06/18 05:01:36;;;;;;;;;;;;;;;;;;5054502;28;19913;-27
2022/06/18 05:04:02;;;;;;;;;;;;;;;;;;5054127;28;20275;-30
2022/06/18 05:06:28;;;;;;;;;;;;;;;;;;5054559;28;19923;-28
2022/06/18 05:08:54;;;;;;;;;;;;;;;;;;5055712;28;19923;-35
2022/06/18 05:11:20;;;;;;;;;;;;;;;;;;5055348;28;19912;-30
2022/06/18 05:13:46;;;;;;;;;;;;;;;;;;5055497;28;19909;-31
2022/06/18 05:16:13;;;;;;;;;;;;;;;;;;5055555;28;19916;-29
2022/06/18 05:18:39;;;;;;;;;;;;;;;;;;5055507;28;19912;-32
2022/06/18 05:21:05;;;;;;;;;;;;;;;;;;5054227;28;20015;-32
2022/06/18 05:23:31;;;;;;;;;;;;;;;;;;4984749;28;2005985;-28
2022/06/18 05:25:57;;;;;;;;;;;;;;;;;;5055137;28;19916;-27
2022/06/18 05:28:23;;;;;;;;;;;;;;;;;;5056505;28;20292;-30
2022/06/18 05:30:50;;;;;;;;;;;;;;;;;;5056266;28;20002;-31
2022/06/18 05:33:15;;;;;;;;;;;;;;;;;;5055946;28;19919;-29
2022/06/18 05:35:41;;;;;;;;;;;;;;;;;;5056264;28;19909;-30
2022/06/18 05:38:07;;;;;;;;;;;;;;;;;;5056068;28;19920;-31
2022/06/18 05:40:33;;;;;;;;;;;;;;;;;;5055609;28;19909;-32
2022/06/18 05:42:59;;;;;;;;;;;;;;;;;;5055873;28;20284;-33
2022/06/18 05:45:25;;;;;;;;;;;;;;;;;;5056130;28;19912;-30
2022/06/18 05:47:51;;;;;;;;;;;;;;;;;;5055977;28;20336;-32
2022/06/18 05:50:17;;;;;;;;;;;;;;;;;;5055912;28;19955;-32
2022/06/18 05:52:43;;;;;;;;;;;;;;;;;;5055454;28;20217;-33
2022/06/18 05:55:09;;;;;;;;;;;;;;;;;;5055660;28;19913;-28
2022/06/18 05:57:35;;;;;;;;;;;;;;;;;;5055348;28;19913;-30
2022/06/18 06:00:02;;;;;;;;;;;;;;;;;;5055069;28;19955;-32
2022/06/18 06:02:28;;;;;;;;;;;;;;;;;;5055235;28;20354;-30
2022/06/18 06:04:54;;;;;;;;;;;;;;;;;;5055133;28;19970;-36
2022/06/18 06:07:20;;;;;;;;;;;;;;;;;;5053873;28;20003;-33
2022/06/18 06:12:31;;;;;;;;;;;;;;;;;;5055152;28;19924;-32
2022/06/18 06:14:57;;;;;;;;;;;;;;;;;;5054553;28;19908;-36
2022/06/18 06:17:22;;;;;;;;;;;;;;;;;;5055020;28;19966;-32
2022/06/18 06:19:49;;;;;;;;;;;;;;;;;;5054753;28;19916;-29
2022/06/18 06:22:14;;;;;;;;;;;;;;;;;;5054767;28;20316;-28
2022/06/18 06:24:41;;;;;;;;;;;;;;;;;;5054857;28;19931;-32
2022/06/18 06:27:07;;;;;;;;;;;;;;;;;;5054991;28;20318;-27
2022/06/18 06:29:33;;;;;;;;;;;;;;;;;;5055224;28;19939;-27
2022/06/18 06:31:59;;;;;;;;;;;;;;;;;;5054871;28;20000;-27
2022/06/18 06:34:25;;;;;;;;;;;;;;;;;;5055141;28;20322;-35
2022/06/18 06:36:51;;;;;;;;;;;;;;;;;;5055019;28;20225;-32
2022/06/18 06:42:09;;;;;;;;;;;;;;;;;;5057743;28;20019;-30
2022/06/18 06:44:38;;;;;;;;;;;;;;;;;;5057310;28;19913;-33
2022/06/18 06:47:05;;;;;;;;;;;;;;;;;;5057415;28;19956;-32
2022/06/18 06:49:32;;;;;;;;;;;;;;;;;;5056540;28;20450;-30
2022/06/18 06:51:59;;;;;;;;;;;;;;;;;;5056325;28;19924;-29
2022/06/18 06:54:26;;;;;;;;;;;;;;;;;;5057319;28;19920;-28
2022/06/18 06:59:38;;;;;;;;;;;;;;;;;;5056750;28;19932;-27
2022/06/18 07:02:05;;;;;;;;;;;;;;;;;;5056289;28;19993;-29
2022/06/18 07:04:31;;;;;;;;;;;;;;;;;;5054336;28;19917;-34
2022/06/18 07:06:57;;;;;;;;;;;;;;;;;;5055777;28;19927;-28
2022/06/18 07:09:24;;;;;;;;;;;;;;;;;;5057000;28;19948;-29
2022/06/18 07:11:50;;;;;;;;;;;;;;;;;;5054663;28;19909;-31
2022/06/18 07:14:16;;;;;;;;;;;;;;;;;;5054559;28;19924;-27
2022/06/18 07:16:42;;;;;;;;;;;;;;;;;;5054300;28;20007;-30
2022/06/18 07:19:09;;;;;;;;;;;;;;;;;;5054613;28;20300;-30
2022/06/18 07:21:35;;;;;;;;;;;;;;;;;;5054353;28;20243;-35
2022/06/18 07:24:01;;;;;;;;;;;;;;;;;;5054109;28;19928;-31
2022/06/18 07:26:27;;;;;;;;;;;;;;;;;;5054577;28;19913;-32
2022/06/18 07:28:53;;;;;;;;;;;;;;;;;;5057739;28;19913;-33
2022/06/18 07:31:19;;;;;;;;;;;;;;;;;;5058610;28;20217;-33
2022/06/18 07:33:46;;;;;;;;;;;;;;;;;;5058716;28;19974;-29
2022/06/18 07:36:12;;;;;;;;;;;;;;;;;;5058474;28;20007;-29
2022/06/18 07:38:38;;;;;;;;;;;;;;;;;;5057467;28;19955;-30
2022/06/18 07:41:04;;;;;;;;;;;;;;;;;;5058396;28;19949;-28
2022/06/18 07:43:31;;;;;;;;;;;;;;;;;;5061027;28;20011;-31
2022/06/18 07:45:58;;;;;;;;;;;;;;;;;;5059751;28;19935;-28
2022/06/18 07:48:25;;;;;;;;;;;;;;;;;;5060877;28;19974;-30
2022/06/18 07:50:52;;;;;;;;;;;;;;;;;;5060039;28;19913;-30
2022/06/18 07:53:19;;;;;;;;;;;;;;;;;;5060240;28;19913;-30
2022/06/18 07:55:46;;;;;;;;;;;;;;;;;;5060536;28;19912;-29
2022/06/18 07:58:12;;;;;;;;;;;;;;;;;;5057796;28;19940;-33
2022/06/18 08:00:40;;;;;;;;;;;;;;;;;;5059970;28;20397;-27
2022/06/18 08:03:06;;;;;;;;;;;;;;;;;;5060461;28;19923;-29
2022/06/18 08:05:34;;;;;;;;;;;;;;;;;;5060709;28;20003;-27
2022/06/18 08:08:01;;;;;;;;;;;;;;;;;;5060213;28;19924;-29
2022/06/18 08:10:32;;;;;;;;;;;;;;;;;;5057581;28;19913;-31
2022/06/18 08:12:58;;;;;;;;;;;;;;;;;;5057648;28;20344;-32
2022/06/18 08:15:24;;;;;;;;;;;;;;;;;;5057622;28;19909;-30
2022/06/18 08:17:50;;;;;;;;;;;;;;;;;;5057607;28;19935;-28
2022/06/18 08:20:16;;;;;;;;;;;;;;;;;;5057932;28;19909;-33
2022/06/18 08:22:42;;;;;;;;;;;;;;;;;;5057274;28;19948;-30
2022/06/18 08:25:08;;;;;;;;;;;;;;;;;;5057412;28;19908;-30
2022/06/18 08:27:34;;;;;;;;;;;;;;;;;;5056915;28;19920;-29
2022/06/18 08:30:00;;;;;;;;;;;;;;;;;;5056889;28;19913;-31
2022/06/18 08:32:26;;;;;;;;;;;;;;;;;;5056987;28;20237;-35
2022/06/18 08:34:52;;;;;;;;;;;;;;;;;;5055865;28;19924;-30
2022/06/18 08:37:18;;;;;;;;;;;;;;;;;;5057153;28;20356;-36
2022/06/18 08:39:44;;;;;;;;;;;;;;;;;;5055414;28;19913;-30
2022/06/18 08:42:10;;;;;;;;;;;;;;;;;;5057108;28;19978;-33
2022/06/18 08:44:36;;;;;;;;;;;;;;;;;;5056528;28;19919;-34
2022/06/18 08:47:02;;;;;;;;;;;;;;;;;;5055512;28;19956;-30
2022/06/18 08:49:28;;;;;;;;;;;;;;;;;;5056746;28;20296;-29
2022/06/18 08:51:54;;;;;;;;;;;;;;;;;;5056358;28;20340;-30
2022/06/18 08:54:20;;;;;;;;;;;;;;;;;;5056394;28;19920;-31
2022/06/18 08:56:46;;;;;;;;;;;;;;;;;;5056272;28;20308;-33
2022/06/18 08:59:12;;;;;;;;;;;;;;;;;;5055227;28;19940;-29
2022/06/18 09:01:38;;;;;;;;;;;;;;;;;;5056456;28;19913;-33
2022/06/18 09:04:04;;;;;;;;;;;;;;;;;;5054963;28;19909;-33
2022/06/18 09:06:30;;;;;;;;;;;;;;;;;;5056363;28;19927;-30
2022/06/18 09:08:56;;;;;;;;;;;;;;;;;;5056570;28;19913;-35
2022/06/18 09:11:22;;;;;;;;;;;;;;;;;;5056723;28;19924;-31
2022/06/18 09:13:48;;;;;;;;;;;;;;;;;;5056446;28;19948;-35
2022/06/18 09:16:14;;;;;;;;;;;;;;;;;;5055476;28;19970;-33
2022/06/18 09:18:41;;;;;;;;;;;;;;;;;;5056393;28;19910;-30
2022/06/18 09:21:07;;;;;;;;;;;;;;;;;;5056671;28;19913;-36
2022/06/18 09:23:33;;;;;;;;;;;;;;;;;;5056155;28;19925;-30
2022/06/18 09:25:59;;;;;;;;;;;;;;;;;;5056112;28;20236;-32
2022/06/18 09:28:25;;;;;;;;;;;;;;;;;;5056384;28;19909;-35
2022/06/18 09:30:51;;;;;;;;;;;;;;;;;;5056621;28;19909;-30
2022/06/18 09:33:17;;;;;;;;;;;;;;;;;;5055206;28;19924;-32
2022/06/18 09:35:43;;;;;;;;;;;;;;;;;;5056261;28;19909;-30
2022/06/18 09:38:09;;;;;;;;;;;;;;;;;;5056548;28;20006;-33
2022/06/18 09:40:35;;;;;;;;;;;;;;;;;;5056044;28;19909;-30
2022/06/18 09:43:01;;;;;;;;;;;;;;;;;;5056054;28;19924;-29
2022/06/18 09:45:27;;;;;;;;;;;;;;;;;;5056096;28;19932;-32
2022/06/18 09:47:55;;;;;;;;;;;;;;;;;;5056033;28;19913;-31
2022/06/18 09:50:21;;;;;;;;;;;;;;;;;;5055318;28;19920;-30
2022/06/18 09:52:47;;;;;;;;;;;;;;;;;;5055807;28;20319;-35
2022/06/18 09:55:14;;;;;;;;;;;;;;;;;;5056571;28;19932;-32
2022/06/18 09:57:47;;;;;;;;;;;;;;;;;;5056894;28;19924;-30
2022/06/18 10:00:14;;;;;;;;;;;;;;;;;;5058105;28;20396;-32
2022/06/18 10:02:42;;;;;;;;;;;;;;;;;;5056406;28;19924;-25
2022/06/18 10:07:55;;;;;;;;;;;;;;;;;;5058282;28;20311;-29
2022/06/18 10:10:24;;;;;;;;;;;;;;;;;;5058947;28;20235;-26
2022/06/18 10:12:53;;;;;;;;;;;;;;;;;;5057787;28;20343;-31
2022/06/18 10:15:21;;;;;;;;;;;;;;;;;;5057090;28;19920;-32
2022/06/18 10:17:48;;;;;;;;;;;;;;;;;;5058097;28;20300;-25
2022/06/18 10:20:15;;;;;;;;;;;;;;;;;;5056906;28;20004;-31
2022/06/18 10:22:43;;;;;;;;;;;;;;;;;;5057098;28;20330;-27
2022/06/18 10:25:10;;;;;;;;;;;;;;;;;;5057360;28;20314;-25
2022/06/18 10:27:38;;;;;;;;;;;;;;;;;;5057542;28;19970;-31
2022/06/18 10:30:05;;;;;;;;;;;;;;;;;;5057308;28;19912;-32
2022/06/18 10:32:33;;;;;;;;;;;;;;;;;;5056860;28;20355;-28
2022/06/18 10:35:00;;;;;;;;;;;;;;;;;;5056993;28;19923;-31
2022/06/18 10:37:28;;;;;;;;;;;;;;;;;;5057965;28;19969;-31
2022/06/18 10:39:55;;;;;;;;;;;;;;;;;;5057006;28;19909;-29
2022/06/18 10:42:22;;;;;;;;;;;;;;;;;;5057368;28;19912;-29
2022/06/18 10:44:49;;;;;;;;;;;;;;;;;;5057376;28;19920;-37
2022/06/18 10:47:17;;;;;;;;;;;;;;;;;;5057124;28;19917;-33
2022/06/18 10:49:46;;;;;;;;;;;;;;;;;;5057389;28;20008;-28
2022/06/18 10:52:13;;;;;;;;;;;;;;;;;;5057438;28;19955;-25
2022/06/18 10:54:40;;;;;;;;;;;;;;;;;;5056293;28;19913;-34
2022/06/18 10:57:07;;;;;;;;;;;;;;;;;;5057287;28;19955;-28
2022/06/18 10:59:34;;;;;;;;;;;;;;;;;;5057545;28;19916;-25
2022/06/18 11:02:00;;;;;;;;;;;;;;;;;;5056924;28;19920;-27
2022/06/18 11:04:29;;;;;;;;;;;;;;;;;;5057013;28;20341;-26
2022/06/18 11:06:57;;;;;;;;;;;;;;;;;;5057540;28;20327;-28
2022/06/18 11:09:24;;;;;;;;;;;;;;;;;;5056748;28;19924;-28
2022/06/18 11:11:52;;;;;;;;;;;;;;;;;;5055797;28;19913;-31
2022/06/18 11:17:03;;;;;;;;;;;;;;;;;;5057875;28;20006;-25
2022/06/18 11:19:31;;;;;;;;;;;;;;;;;;5057096;28;19913;-25
2022/06/18 11:21:58;;;;;;;;;;;;;;;;;;5056706;28;19912;-31
2022/06/18 11:24:26;;;;;;;;;;;;;;;;;;5055729;28;20007;-27
2022/06/18 11:26:53;;;;;;;;;;;;;;;;;;5057291;28;19971;-28
2022/06/18 11:29:20;;;;;;;;;;;;;;;;;;5056537;28;19916;-26
2022/06/18 11:31:46;;;;;;;;;;;;;;;;;;5055946;28;19912;-30
2022/06/18 11:34:13;;;;;;;;;;;;;;;;;;5056776;28;20350;-28
2022/06/18 11:36:41;;;;;;;;;;;;;;;;;;5057204;28;19923;-29
2022/06/18 11:39:08;;;;;;;;;;;;;;;;;;5057245;28;19913;-27
2022/06/18 11:41:35;;;;;;;;;;;;;;;;;;5057072;28;19913;-28
2022/06/18 11:44:02;;;;;;;;;;;;;;;;;;5056499;28;19909;-24
2022/06/18 11:46:29;;;;;;;;;;;;;;;;;;5057220;28;19920;-31
2022/06/18 11:48:56;;;;;;;;;;;;;;;;;;5055883;28;19923;-26
2022/06/18 11:51:23;;;;;;;;;;;;;;;;;;5056828;28;19908;-25
2022/06/18 11:56:35;;;;;;;;;;;;;;;;;;5059792;28;19939;-28
2022/06/18 11:59:02;;;;;;;;;;;;;;;;;;5057011;28;19920;-29
2022/06/18 12:01:33;;;;;;;;;;;;;;;;;;5056780;28;19912;-27
2022/06/18 12:04:01;;;;;;;;;;;;;;;;;;5057113;28;20323;-24
2022/06/18 12:06:29;;;;;;;;;;;;;;;;;;5056554;28;19939;-30
2022/06/18 12:08:56;;;;;;;;;;;;;;;;;;5055757;28;19913;-28
2022/06/18 12:11:23;;;;;;;;;;;;;;;;;;5055751;28;19912;-27
2022/06/18 12:13:50;;;;;;;;;;;;;;;;;;5057741;28;19913;-26
2022/06/18 12:16:17;;;;;;;;;;;;;;;;;;5060458;28;19974;-28
2022/06/18 12:18:43;;;;;;;;;;;;;;;;;;5059059;28;19923;-28
2022/06/18 12:21:10;;;;;;;;;;;;;;;;;;5060419;28;19924;-29
2022/06/18 12:23:37;;;;;;;;;;;;;;;;;;5058834;28;19931;-28
2022/06/18 12:26:04;;;;;;;;;;;;;;;;;;5059959;28;20015;-25
2022/06/18 12:28:31;;;;;;;;;;;;;;;;;;5060224;28;19978;-27
2022/06/18 12:30:58;;;;;;;;;;;;;;;;;;5060502;28;19931;-28
2022/06/18 12:33:26;;;;;;;;;;;;;;;;;;5060001;28;19998;-27
2022/06/18 12:35:53;;;;;;;;;;;;;;;;;;5059984;28;19920;-29
2022/06/18 12:38:20;;;;;;;;;;;;;;;;;;5060507;28;19908;-30
2022/06/18 12:40:49;;;;;;;;;;;;;;;;;;5059886;28;20011;-27
2022/06/18 12:43:15;;;;;;;;;;;;;;;;;;5059935;28;19913;-28
2022/06/18 12:45:42;;;;;;;;;;;;;;;;;;5059402;28;19966;-28
2022/06/18 12:48:09;;;;;;;;;;;;;;;;;;5059750;28;19971;-32
2022/06/18 12:50:36;;;;;;;;;;;;;;;;;;5060191;28;20007;-25
2022/06/18 12:53:03;;;;;;;;;;;;;;;;;;5059517;28;19921;-28
2022/06/18 12:55:31;;;;;;;;;;;;;;;;;;5058518;28;19913;-34
2022/06/18 12:57:58;;;;;;;;;;;;;;;;;;5059851;28;19913;-32
2022/06/18 13:00:25;;;;;;;;;;;;;;;;;;5058428;28;19920;-25
2022/06/18 13:02:52;;;;;;;;;;;;;;;;;;5059569;28;19924;-27
2022/06/18 13:05:20;;;;;;;;;;;;;;;;;;5058427;28;19915;-30
2022/06/18 13:07:47;;;;;;;;;;;;;;;;;;5059165;28;19913;-25
2022/06/18 13:10:14;;;;;;;;;;;;;;;;;;5059486;28;19912;-30
2022/06/18 13:15:37;;;;;;;;;;;;;;;;;;5060845;28;19923;-27
2022/06/18 13:18:04;;;;;;;;;;;;;;;;;;5059999;28;19917;-30
2022/06/18 13:28:54;;;;;;;;;;;;;;;;;;5060744;28;19920;-27
2022/06/18 13:31:21;;;;;;;;;;;;;;;;;;5058787;28;19919;-30
2022/06/18 13:33:49;;;;;;;;;;;;;;;;;;5059108;28;19913;-32
2022/06/18 13:36:16;;;;;;;;;;;;;;;;;;5058883;28;19924;-26
2022/06/18 13:38:43;;;;;;;;;;;;;;;;;;5059047;28;19923;-28
2022/06/18 13:43:56;;;;;;;;;;;;;;;;;;5058506;28;19920;-28
2022/06/18 13:57:45;;;;;;;;;;;;;;;;;;5058351;28;19920;-25
2022/06/18 14:05:54;;;;;;;;;;;;;;;;;;5058117;28;20037;-22
2022/06/18 14:08:32;;;;;;;;;;;;;;;;;;5056964;28;19912;-22
2022/06/18 14:19:35;;;;;;;;;;;;;;;;;;5058336;28;19924;-22
2022/06/18 14:36:13;;;;;;;;;;;;;;;;;;5059855;28;20020;-21
2022/06/18 14:44:15;;;;;;;;;;;;;;;;;;5059607;28;19927;-22
2022/06/18 14:49:48;;;;;;;;;;;;;;;;;;5058237;28;19982;-21
2022/06/18 14:55:00;;;;;;;;;;;;;;;;;;5057879;28;19919;-22
2022/06/18 14:57:27;;;;;;;;;;;;;;;;;;5057393;28;19924;-21
2022/06/18 14:59:55;;;;;;;;;;;;;;;;;;5057822;28;20301;-22
2022/06/18 15:10:53;;;;;;;;;;;;;;;;;;5037616;28;20027;-22
2022/06/18 15:13:20;;;;;;;;;;;;;;;;;;5036210;28;19913;-22
2022/06/18 15:20:54;;;;;;;;;;;;;;;;;;5037677;28;20411;-23
2022/06/18 15:23:28;;;;;;;;;;;;;;;;;;5036762;28;20217;-25
2022/06/18 15:25:57;;;;;;;;;;;;;;;;;;5037424;28;19927;-21
2022/06/18 15:28:23;;;;;;;;;;;;;;;;;;5036395;28;20360;-21
2022/06/18 15:30:51;;;;;;;;;;;;;;;;;;5036878;28;19917;-21
2022/06/18 15:33:18;;;;;;;;;;;;;;;;;;5036982;28;20012;-21
2022/06/18 15:35:44;;;;;;;;;;;;;;;;;;5036916;28;19910;-21
2022/06/18 15:38:11;;;;;;;;;;;;;;;;;;5037585;28;20055;-22
2022/06/18 15:43:43;;;;;;;;;;;;;;;;;;5034755;28;19997;-22
2022/06/18 15:52:03;;;;;;;;;;;;;;;;;;5040675;28;19924;-22
2022/06/18 16:00:06;;;;;;;;;;;;;;;;;;5039191;28;19975;-21
2022/06/18 16:33:44;;;;;;;;;;;;;;;;;;5058114;22;19929;-24
2022/06/18 16:36:10;;;;;;;;;;;;;;;;;;5048062;28;20243;-24
2022/06/18 16:41:23;;;;;;;;;;;;;;;;;;5059548;28;20086;-23
2022/06/18 16:43:53;;;;;;;;;;;;;;;;;;5041260;28;19948;-23
2022/06/18 16:46:21;;;;;;;;;;;;;;;;;;5058755;28;19917;-23
2022/06/18 16:48:48;;;;;;;;;;;;;;;;;;5059820;28;19987;-23
2022/06/18 16:51:15;;;;;;;;;;;;;;;;;;5058481;28;20228;-24
2022/06/18 16:53:42;;;;;;;;;;;;;;;;;;5059523;28;19935;-24
2022/06/18 16:56:09;;;;;;;;;;;;;;;;;;5059169;28;19916;-24
2022/06/18 16:58:37;;;;;;;;;;;;;;;;;;5059694;28;20038;-24
2022/06/18 17:01:07;;;;;;;;;;;;;;;;;;5058374;28;19919;-24
2022/06/18 17:03:34;;;;;;;;;;;;;;;;;;5059908;28;19956;-24
2022/06/18 17:06:02;;;;;;;;;;;;;;;;;;5059722;28;19921;-24
2022/06/18 17:08:30;;;;;;;;;;;;;;;;;;5059370;28;19966;-24
2022/06/18 18:41:53;;;;;;;;;;;;;;;;;;5038090;28;19975;-23
2022/06/18 18:49:59;;;;;;;;;;;;;;;;;;5038315;28;19919;-23
2022/06/18 18:55:12;;;;;;;;;;;;;;;;;;5038222;28;19920;-23
2022/06/18 18:57:39;;;;;;;;;;;;;;;;;;5037761;28;20225;-23
2022/06/18 19:00:05;;;;;;;;;;;;;;;;;;5037333;28;19971;-23
2022/06/18 19:02:32;;;;;;;;;;;;;;;;;;5037568;28;19956;-24
2022/06/18 19:05:00;;;;;;;;;;;;;;;;;;5037467;28;19921;-23
2022/06/18 19:07:27;;;;;;;;;;;;;;;;;;5037286;28;19917;-23
2022/06/18 19:09:54;;;;;;;;;;;;;;;;;;5037520;28;19968;-23
2022/06/18 19:15:05;;;;;;;;;;;;;;;;;;5037044;28;20390;-23
2022/06/18 19:17:32;;;;;;;;;;;;;;;;;;5037298;28;19984;-23
2022/06/18 19:20:00;;;;;;;;;;;;;;;;;;5019364;28;19912;-23
2022/06/18 19:22:28;;;;;;;;;;;;;;;;;;5019180;28;19917;-23
2022/06/18 19:24:55;;;;;;;;;;;;;;;;;;5036594;28;19920;-23
2022/06/18 19:27:22;;;;;;;;;;;;;;;;;;5036964;28;19979;-23
2022/06/18 19:29:49;;;;;;;;;;;;;;;;;;5019949;28;19923;-23
2022/06/18 19:32:16;;;;;;;;;;;;;;;;;;5037169;28;19913;-23
2022/06/18 19:34:43;;;;;;;;;;;;;;;;;;5019574;28;20282;-23
2022/06/18 19:37:12;;;;;;;;;;;;;;;;;;5036976;28;19913;-23
2022/06/18 19:39:39;;;;;;;;;;;;;;;;;;5037008;28;20232;-23
2022/06/18 19:42:06;;;;;;;;;;;;;;;;;;5037234;28;19917;-23
2022/06/18 19:44:34;;;;;;;;;;;;;;;;;;5036831;28;20271;-23
2022/06/18 19:47:02;;;;;;;;;;;;;;;;;;5036993;28;19995;-23
2022/06/18 19:49:29;;;;;;;;;;;;;;;;;;5037043;28;19944;-23
2022/06/18 19:52:00;;;;;;;;;;;;;;;;;;5037292;28;20387;-23
2022/06/18 19:54:27;;;;;;;;;;;;;;;;;;5036730;28;19913;-23
2022/06/18 19:56:53;;;;;;;;;;;;;;;;;;5018869;28;20266;-23
2022/06/18 19:59:22;;;;;;;;;;;;;;;;;;5019336;28;19949;-23
2022/06/18 20:01:50;;;;;;;;;;;;;;;;;;5036900;28;20324;-23
2022/06/18 20:04:17;;;;;;;;;;;;;;;;;;5036439;28;19909;-23
2022/06/18 20:06:44;;;;;;;;;;;;;;;;;;5036465;28;20403;-23
2022/06/18 20:09:12;;;;;;;;;;;;;;;;;;5036283;28;20262;-23
2022/06/18 20:11:39;;;;;;;;;;;;;;;;;;5036803;28;19917;-23
2022/06/18 20:14:06;;;;;;;;;;;;;;;;;;5019113;28;20237;-23
2022/06/18 20:16:33;;;;;;;;;;;;;;;;;;5019189;28;19971;-24
2022/06/18 20:19:01;;;;;;;;;;;;;;;;;;5036549;28;19931;-23
2022/06/18 20:21:28;;;;;;;;;;;;;;;;;;5036763;28;19948;-23
2022/06/18 20:23:55;;;;;;;;;;;;;;;;;;5036250;28;19924;-23
2022/06/18 20:26:23;;;;;;;;;;;;;;;;;;5036631;28;19913;-23
2022/06/18 20:28:49;;;;;;;;;;;;;;;;;;5036529;28;20015;-23
2022/06/18 20:31:17;;;;;;;;;;;;;;;;;;5036370;28;19909;-23
2022/06/18 20:33:45;;;;;;;;;;;;;;;;;;5018269;28;19913;-23
2022/06/18 20:36:12;;;;;;;;;;;;;;;;;;5039458;28;19944;-23
2022/06/18 20:38:39;;;;;;;;;;;;;;;;;;5040019;28;20048;-23
2022/06/18 20:41:06;;;;;;;;;;;;;;;;;;5040001;28;19932;-23
2022/06/18 20:43:32;;;;;;;;;;;;;;;;;;5039694;28;19983;-23
2022/06/18 20:46:01;;;;;;;;;;;;;;;;;;5039570;28;19997;-23
2022/06/18 20:48:27;;;;;;;;;;;;;;;;;;5039228;28;19970;-23
2022/06/18 20:50:56;;;;;;;;;;;;;;;;;;5039820;28;19948;-23
2022/06/18 20:53:23;;;;;;;;;;;;;;;;;;5039473;28;20000;-23
2022/06/18 20:58:35;;;;;;;;;;;;;;;;;;5039614;28;19924;-23
2022/06/18 21:01:03;;;;;;;;;;;;;;;;;;5021667;28;19921;-23
2022/06/18 21:03:31;;;;;;;;;;;;;;;;;;5039448;28;19913;-23